createdAt,value
2022-09-25T00:01:15.613Z,8.20
2022-09-25T00:03:42.461Z,8.10
2022-09-25T00:06:13.715Z,8.20
2022-09-25T00:08:40.693Z,8.20
2022-09-25T00:11:19.884Z,8.10
2022-09-25T00:13:47.452Z,8.20
2022-09-25T00:16:17.283Z,8.30
2022-09-25T00:19:03.108Z,8.20
2022-09-25T00:21:31.703Z,8.10
2022-09-25T00:24:03.600Z,8.20
2022-09-25T00:26:33.110Z,8.20
2022-09-25T00:29:01.411Z,8.10
2022-09-25T00:31:29.423Z,8.00
2022-09-25T00:34:02.537Z,8.10
2022-09-25T00:36:30.380Z,8.20
2022-09-25T00:38:58.303Z,8.20
2022-09-25T00:41:27.192Z,8.20
2022-09-25T00:43:56.490Z,8.20
2022-09-25T00:46:23.277Z,8.30
2022-09-25T00:48:59.484Z,8.30
2022-09-25T00:51:30.421Z,8.30
2022-09-25T00:54:01.182Z,8.40
2022-09-25T00:56:34.525Z,8.50
2022-09-25T00:59:01.828Z,8.50
2022-09-25T01:01:28.946Z,8.40
2022-09-25T01:03:56.164Z,8.40
2022-09-25T01:06:26.159Z,8.30
2022-09-25T01:08:53.106Z,8.30
2022-09-25T01:11:19.887Z,8.30
2022-09-25T01:13:46.791Z,8.20
2022-09-25T01:16:32.320Z,8.20
2022-09-25T01:19:26.332Z,8.10
2022-09-25T01:22:11.074Z,8.10
2022-09-25T01:24:50.646Z,8.00
2022-09-25T01:27:35.839Z,8.00
2022-09-25T01:30:20.301Z,8.10
2022-09-25T01:33:03.427Z,8.20
2022-09-25T01:35:48.351Z,8.20
2022-09-25T01:38:35.745Z,8.30
2022-09-25T01:41:27.390Z,8.20
2022-09-25T01:44:13.529Z,8.20
2022-09-25T01:46:46.541Z,8.10
2022-09-25T01:49:25.662Z,8.20
2022-09-25T01:51:55.997Z,8.20
2022-09-25T01:54:28.883Z,8.10
2022-09-25T01:57:03.041Z,8.10
2022-09-25T02:00:08.711Z,8.10
2022-09-25T02:02:43.452Z,8.20
2022-09-25T02:05:10.267Z,8.20
2022-09-25T02:07:45.458Z,8.30
2022-09-25T02:10:21.876Z,8.40
2022-09-25T02:12:55.805Z,8.50
2022-09-25T02:15:29.955Z,8.70
2022-09-25T02:18:20.225Z,8.70
2022-09-25T02:21:01.666Z,8.70
2022-09-25T02:24:05.403Z,8.60
2022-09-25T02:26:34.710Z,8.50
2022-09-25T02:29:02.491Z,8.60
2022-09-25T02:31:45.555Z,8.80
2022-09-25T02:34:15.188Z,8.80
2022-09-25T02:36:43.739Z,8.70
2022-09-25T02:39:12.893Z,8.70
2022-09-25T02:42:09.953Z,8.70
2022-09-25T02:44:39.907Z,8.70
2022-09-25T02:47:52.032Z,8.80
2022-09-25T02:50:50.007Z,8.90
2022-09-25T02:53:16.739Z,9.00
2022-09-25T02:55:57.155Z,9.00
2022-09-25T02:58:34.353Z,9.10
2022-09-25T03:01:03.889Z,9.10
2022-09-25T03:03:33.561Z,9.20
2022-09-25T03:06:02.626Z,9.20
2022-09-25T03:08:41.645Z,9.10
2022-09-25T03:11:14.177Z,9.00
2022-09-25T03:13:42.595Z,9.00
2022-09-25T03:16:33.706Z,9.00
2022-09-25T03:19:01.511Z,9.00
2022-09-25T03:21:28.456Z,9.10
2022-09-25T03:23:57.021Z,9.20
2022-09-25T03:26:25.404Z,9.20
2022-09-25T03:28:52.817Z,9.20
2022-09-25T03:31:20.476Z,9.20
2022-09-25T03:33:48.200Z,9.20
2022-09-25T03:36:18.926Z,9.10
2022-09-25T03:38:47.744Z,9.20
2022-09-25T03:41:17.081Z,9.20
2022-09-25T03:43:44.274Z,9.20
2022-09-25T03:46:13.425Z,9.30
2022-09-25T03:48:41.155Z,9.20
2022-09-25T03:51:09.015Z,9.30
2022-09-25T03:53:36.884Z,9.30
2022-09-25T03:56:06.738Z,9.30
2022-09-25T03:58:34.759Z,9.40
2022-09-25T04:01:02.030Z,9.40
2022-09-25T04:03:30.669Z,9.50
2022-09-25T04:05:59.181Z,9.40
2022-09-25T04:08:27.965Z,9.40
2022-09-25T04:11:01.824Z,9.50
2022-09-25T04:13:31.504Z,9.50
2022-09-25T04:16:01.124Z,9.40
2022-09-25T04:18:31.826Z,9.40
2022-09-25T04:21:04.332Z,9.40
2022-09-25T04:23:32.132Z,9.40
2022-09-25T04:25:59.058Z,9.40
2022-09-25T04:28:26.480Z,9.40
2022-09-25T04:30:53.528Z,9.50
2022-09-25T04:33:39.267Z,9.50
2022-09-25T04:36:06.560Z,9.50
2022-09-25T04:38:33.563Z,9.50
2022-09-25T04:41:01.693Z,9.40
2022-09-25T04:43:32.575Z,9.50
2022-09-25T04:46:04.565Z,9.50
2022-09-25T04:48:32.575Z,9.60
2022-09-25T04:50:59.380Z,9.60
2022-09-25T04:53:28.345Z,9.60
2022-09-25T04:56:00.300Z,9.60
2022-09-25T04:58:27.272Z,9.70
2022-09-25T05:00:54.114Z,9.70
2022-09-25T05:03:21.025Z,9.60
2022-09-25T05:05:49.281Z,9.60
2022-09-25T05:08:16.010Z,9.60
2022-09-25T05:10:44.275Z,9.60
2022-09-25T05:13:11.366Z,9.60
2022-09-25T05:15:38.088Z,9.60
2022-09-25T05:18:20.763Z,9.60
2022-09-25T05:20:48.666Z,9.60
2022-09-25T05:23:16.231Z,9.60
2022-09-25T05:25:43.344Z,9.70
2022-09-25T05:28:11.205Z,9.70
2022-09-25T05:30:39.572Z,9.80
2022-09-25T05:33:06.515Z,9.80
2022-09-25T05:35:34.572Z,9.80
2022-09-25T05:38:01.312Z,9.80
2022-09-25T05:40:28.485Z,9.80
2022-09-25T05:42:55.432Z,9.80
2022-09-25T05:45:23.867Z,9.90
2022-09-25T05:48:09.063Z,9.90
2022-09-25T05:50:36.153Z,10.00
2022-09-25T05:53:05.194Z,10.00
2022-09-25T05:55:32.213Z,10.00
2022-09-25T05:58:05.423Z,9.90
2022-09-25T06:00:33.326Z,10.00
2022-09-25T06:03:01.609Z,10.00
2022-09-25T06:05:28.543Z,10.00
2022-09-25T06:07:55.923Z,10.10
2022-09-25T06:10:22.872Z,10.10
2022-09-25T06:12:49.730Z,10.10
2022-09-25T06:15:16.547Z,10.10
2022-09-25T06:17:43.351Z,10.10
2022-09-25T06:20:15.949Z,10.10
2022-09-25T06:22:44.538Z,10.10
2022-09-25T06:25:11.394Z,10.20
2022-09-25T06:27:38.128Z,10.20
2022-09-25T06:30:05.912Z,10.20
2022-09-25T06:32:32.685Z,10.20
2022-09-25T06:34:59.414Z,10.30
2022-09-25T06:37:26.184Z,10.30
2022-09-25T06:39:52.929Z,10.30
2022-09-25T06:42:19.639Z,10.40
2022-09-25T06:44:46.537Z,10.40
2022-09-25T06:47:17.789Z,10.50
2022-09-25T06:49:50.040Z,10.50
2022-09-25T06:52:17.018Z,10.50
2022-09-25T06:54:44.466Z,10.50
2022-09-25T06:57:12.786Z,10.50
2022-09-25T06:59:40.388Z,10.50
2022-09-25T07:02:27.667Z,10.50
2022-09-25T07:04:54.713Z,10.50
2022-09-25T07:07:22.148Z,10.50
2022-09-25T07:09:49.078Z,10.50
2022-09-25T07:12:17.657Z,10.60
2022-09-25T07:14:46.957Z,10.60
2022-09-25T07:17:14.524Z,10.60
2022-09-25T07:19:41.355Z,10.60
2022-09-25T07:22:08.146Z,10.70
2022-09-25T07:24:34.883Z,10.70
2022-09-25T07:27:01.795Z,10.70
2022-09-25T07:29:28.541Z,10.70
2022-09-25T07:31:55.301Z,10.70
2022-09-25T07:34:22.127Z,10.80
2022-09-25T07:36:52.766Z,10.80
2022-09-25T07:39:19.548Z,10.90
2022-09-25T07:41:46.756Z,10.90
2022-09-25T07:44:31.630Z,10.90
2022-09-25T07:47:01.839Z,11.00
2022-09-25T07:49:29.283Z,11.00
2022-09-25T07:51:56.185Z,11.00
2022-09-25T07:54:23.763Z,11.00
2022-09-25T07:56:50.584Z,11.00
2022-09-25T07:59:17.340Z,11.00
2022-09-25T08:01:47.299Z,11.10
2022-09-25T08:04:17.955Z,11.10
2022-09-25T08:06:47.441Z,11.10
2022-09-25T08:09:14.250Z,11.10
2022-09-25T08:11:41.212Z,11.20
2022-09-25T08:14:08.089Z,11.20
2022-09-25T08:16:34.892Z,11.20
2022-09-25T08:19:01.711Z,11.20
2022-09-25T08:21:28.643Z,11.20
2022-09-25T08:23:56.608Z,11.30
2022-09-25T08:26:23.552Z,11.30
2022-09-25T08:28:50.982Z,11.30
2022-09-25T08:31:18.448Z,11.30
2022-09-25T08:33:50.069Z,11.30
2022-09-25T08:36:17.809Z,11.30
2022-09-25T08:38:45.577Z,11.40
2022-09-25T08:41:22.120Z,11.40
2022-09-25T08:44:12.197Z,11.40
2022-09-25T08:47:03.980Z,11.40
2022-09-25T08:50:06.010Z,11.30
2022-09-25T08:53:12.515Z,11.40
2022-09-25T08:56:17.831Z,11.40
2022-09-25T08:59:23.214Z,11.40
2022-09-25T09:01:54.935Z,11.40
2022-09-25T09:04:32.885Z,11.40
2022-09-25T09:07:27.655Z,11.40
2022-09-25T09:10:09.251Z,11.40
2022-09-25T09:12:47.841Z,11.50
2022-09-25T09:15:40.771Z,11.50
2022-09-25T09:18:26.675Z,11.60
2022-09-25T09:21:09.424Z,11.70
2022-09-25T09:23:59.496Z,11.70
2022-09-25T09:26:46.054Z,11.70
2022-09-25T09:29:46.114Z,11.70
2022-09-25T09:32:22.345Z,11.80
2022-09-25T09:35:06.848Z,11.80
2022-09-25T09:37:57.884Z,11.80
2022-09-25T09:40:47.540Z,11.80
2022-09-25T09:43:36.831Z,11.80
2022-09-25T09:46:08.034Z,11.80
2022-09-25T09:49:02.026Z,11.80
2022-09-25T09:52:17.469Z,11.90
2022-09-25T09:55:05.355Z,11.80
2022-09-25T09:57:49.028Z,11.90
2022-09-25T10:00:18.164Z,11.90
2022-09-25T10:02:53.454Z,12.00
2022-09-25T10:05:37.865Z,11.90
2022-09-25T10:08:04.757Z,12.00
2022-09-25T10:10:56.152Z,12.00
2022-09-25T10:13:36.732Z,12.00
2022-09-25T10:16:12.287Z,11.90
2022-09-25T10:18:57.204Z,12.00
2022-09-25T10:21:28.488Z,12.10
2022-09-25T10:23:58.607Z,12.20
2022-09-25T10:26:37.220Z,12.20
2022-09-25T10:29:10.095Z,12.20
2022-09-25T10:31:39.815Z,12.20
2022-09-25T10:34:24.172Z,12.20
2022-09-25T10:36:53.574Z,12.30
2022-09-25T10:39:49.234Z,12.40
2022-09-25T10:42:39.785Z,12.70
2022-09-25T10:45:36.633Z,12.60
2022-09-25T10:48:46.599Z,12.60
2022-09-25T10:51:17.419Z,12.80
2022-09-25T10:53:45.945Z,12.80
2022-09-25T10:56:18.989Z,12.90
2022-09-25T10:58:58.172Z,13.00
2022-09-25T11:01:37.959Z,13.00
2022-09-25T11:04:18.577Z,13.00
2022-09-25T11:06:52.451Z,13.00
2022-09-25T11:09:22.828Z,12.90
2022-09-25T11:11:52.991Z,12.80
2022-09-25T11:14:25.071Z,12.70
2022-09-25T11:16:58.006Z,12.70
2022-09-25T11:19:33.753Z,12.70
2022-09-25T11:22:25.823Z,12.80
2022-09-25T11:25:04.398Z,12.90
2022-09-25T11:27:42.904Z,12.90
2022-09-25T11:30:19.050Z,13.00
2022-09-25T11:33:07.564Z,13.20
2022-09-25T11:35:53.216Z,13.10
2022-09-25T11:38:46.462Z,13.20
2022-09-25T11:41:26.022Z,13.20
2022-09-25T11:44:17.851Z,13.30
2022-09-25T11:47:25.833Z,13.30
2022-09-25T11:49:54.933Z,13.30
2022-09-25T11:52:47.510Z,13.30
2022-09-25T11:55:23.520Z,13.20
2022-09-25T11:58:11.315Z,13.20
2022-09-25T12:00:41.074Z,13.20
2022-09-25T12:03:38.609Z,13.20
2022-09-25T12:06:18.590Z,13.10
2022-09-25T12:09:03.435Z,13.00
2022-09-25T12:11:45.830Z,13.10
2022-09-25T12:14:41.563Z,13.20
2022-09-25T12:17:20.606Z,13.20
2022-09-25T12:19:58.970Z,13.10
2022-09-25T12:22:57.360Z,13.30
2022-09-25T12:25:55.508Z,13.20
2022-09-25T12:28:41.652Z,13.30
2022-09-25T12:31:36.890Z,13.30
2022-09-25T12:34:12.517Z,13.40
2022-09-25T12:36:52.542Z,13.20
2022-09-25T12:39:41.320Z,13.20
2022-09-25T12:42:19.571Z,13.20
2022-09-25T12:45:03.069Z,13.20
2022-09-25T12:48:17.048Z,13.20
2022-09-25T12:51:21.633Z,13.30
2022-09-25T12:53:54.898Z,13.50
2022-09-25T12:56:31.399Z,13.50
2022-09-25T12:59:11.050Z,13.60
2022-09-25T13:01:55.406Z,13.70
2022-09-25T13:04:41.204Z,13.60
2022-09-25T13:07:15.485Z,13.70
2022-09-25T13:09:47.541Z,13.70
2022-09-25T13:12:34.179Z,13.70
2022-09-25T13:15:10.750Z,13.70
2022-09-25T13:17:38.600Z,13.80
2022-09-25T13:20:27.079Z,13.70
2022-09-25T13:22:58.621Z,13.70
2022-09-25T13:25:26.105Z,13.80
2022-09-25T13:27:54.355Z,13.70
2022-09-25T13:30:27.969Z,13.70
2022-09-25T13:33:02.967Z,13.80
2022-09-25T13:35:32.427Z,13.90
2022-09-25T13:38:39.776Z,13.80
2022-09-25T13:41:14.125Z,13.80
2022-09-25T13:43:41.080Z,13.70
2022-09-25T13:46:17.962Z,13.70
2022-09-25T13:48:44.926Z,13.60
2022-09-25T13:51:35.827Z,13.60
2022-09-25T13:54:11.417Z,13.70
2022-09-25T13:56:41.226Z,13.60
2022-09-25T13:59:12.369Z,13.60
2022-09-25T14:01:55.784Z,13.60
2022-09-25T14:04:33.930Z,13.70
2022-09-25T14:07:13.082Z,13.70
2022-09-25T14:09:44.633Z,13.70
2022-09-25T14:12:27.515Z,13.60
2022-09-25T14:15:05.951Z,13.60
2022-09-25T14:17:34.568Z,13.60
2022-09-25T14:20:06.285Z,13.60
2022-09-25T14:22:33.037Z,13.40
2022-09-25T14:25:00.702Z,13.50
2022-09-25T14:27:28.094Z,13.50
2022-09-25T14:30:11.428Z,13.50
2022-09-25T14:33:28.282Z,13.50
2022-09-25T14:36:34.971Z,13.50
2022-09-25T14:39:38.655Z,13.60
2022-09-25T14:42:26.668Z,13.60
2022-09-25T14:45:31.268Z,13.60
2022-09-25T14:48:02.263Z,13.60
2022-09-25T14:50:34.626Z,13.60
2022-09-25T14:53:08.195Z,13.60
2022-09-25T14:55:41.332Z,13.60
2022-09-25T14:58:10.017Z,13.60
2022-09-25T15:00:49.172Z,13.60
2022-09-25T15:03:19.228Z,13.50
2022-09-25T15:05:50.246Z,13.50
2022-09-25T15:08:31.222Z,13.40
2022-09-25T15:11:03.791Z,13.20
2022-09-25T15:13:33.727Z,13.20
2022-09-25T15:16:20.607Z,13.20
2022-09-25T15:18:55.112Z,13.20
2022-09-25T15:21:33.222Z,13.20
2022-09-25T15:24:07.012Z,13.10
2022-09-25T15:26:39.298Z,13.10
2022-09-25T15:29:22.938Z,13.10
2022-09-25T15:31:51.505Z,13.10
2022-09-25T15:34:27.528Z,12.90
2022-09-25T15:36:54.495Z,12.80
2022-09-25T15:39:24.843Z,12.80
2022-09-25T15:41:52.027Z,12.90
2022-09-25T15:44:24.151Z,12.90
2022-09-25T15:47:00.768Z,12.80
2022-09-25T15:49:31.813Z,12.80
2022-09-25T15:52:01.767Z,12.80
2022-09-25T15:54:36.600Z,12.90
2022-09-25T15:57:11.305Z,12.80
2022-09-25T16:00:07.323Z,12.70
2022-09-25T16:02:59.933Z,12.80
2022-09-25T16:05:35.454Z,12.80
2022-09-25T16:08:24.014Z,12.70
2022-09-25T16:11:03.025Z,12.80
2022-09-25T16:13:30.159Z,12.80
2022-09-25T16:15:57.081Z,12.70
2022-09-25T16:18:24.426Z,12.70
2022-09-25T16:21:06.977Z,12.60
2022-09-25T16:23:34.239Z,12.60
2022-09-25T16:26:01.543Z,12.60
2022-09-25T16:28:33.617Z,12.70
2022-09-25T16:31:10.167Z,12.60
2022-09-25T16:33:40.539Z,12.60
2022-09-25T16:36:17.466Z,12.60
2022-09-25T16:39:09.878Z,12.60
2022-09-25T16:41:46.241Z,12.60
2022-09-25T16:44:17.821Z,12.50
2022-09-25T16:47:07.679Z,12.50
2022-09-25T16:49:43.637Z,12.50
2022-09-25T16:52:22.281Z,12.40
2022-09-25T16:54:54.454Z,12.40
2022-09-25T16:57:23.665Z,12.40
2022-09-25T16:59:50.940Z,12.40
2022-09-25T17:02:35.268Z,12.40
2022-09-25T17:05:05.616Z,12.40
2022-09-25T17:07:32.551Z,12.40
2022-09-25T17:10:01.062Z,12.50
2022-09-25T17:12:29.834Z,12.40
2022-09-25T17:14:56.912Z,12.40
2022-09-25T17:17:23.748Z,12.40
2022-09-25T17:19:50.882Z,12.40
2022-09-25T17:22:17.961Z,12.50
2022-09-25T17:24:44.924Z,12.50
2022-09-25T17:27:16.660Z,12.50
2022-09-25T17:29:46.073Z,12.50
2022-09-25T17:32:19.265Z,12.50
2022-09-25T17:34:46.512Z,12.50
2022-09-25T17:37:13.865Z,12.40
2022-09-25T17:39:40.726Z,12.40
2022-09-25T17:42:07.628Z,12.40
2022-09-25T17:44:34.546Z,12.30
2022-09-25T17:47:01.958Z,12.40
2022-09-25T17:49:29.284Z,12.40
2022-09-25T17:51:56.355Z,12.40
2022-09-25T17:54:23.433Z,12.40
2022-09-25T17:56:50.463Z,12.40
2022-09-25T17:59:17.361Z,12.50
2022-09-25T18:01:44.451Z,12.50
2022-09-25T18:04:20.511Z,12.50
2022-09-25T18:06:47.600Z,12.50
2022-09-25T18:09:14.518Z,12.50
2022-09-25T18:11:44.853Z,12.40
2022-09-25T18:14:13.827Z,12.40
2022-09-25T18:16:42.771Z,12.40
2022-09-25T18:19:38.659Z,12.40
2022-09-25T18:22:19.098Z,12.40
2022-09-25T18:24:47.434Z,12.40
2022-09-25T18:27:15.691Z,12.30
2022-09-25T18:29:44.793Z,12.20
2022-09-25T18:32:11.783Z,12.20
2022-09-25T18:34:38.503Z,12.20
2022-09-25T18:37:05.377Z,12.20
2022-09-25T18:39:32.219Z,12.20
2022-09-25T18:41:59.121Z,12.30
2022-09-25T18:44:26.969Z,12.30
2022-09-25T18:46:54.699Z,12.30
2022-09-25T18:49:21.640Z,12.30
2022-09-25T18:51:48.419Z,12.30
2022-09-25T18:54:16.120Z,12.20
2022-09-25T18:56:43.974Z,12.20
2022-09-25T18:59:10.900Z,12.10
2022-09-25T19:01:39.442Z,12.10
2022-09-25T19:04:07.121Z,12.10
2022-09-25T19:06:34.162Z,12.20
2022-09-25T19:09:01.403Z,12.20
2022-09-25T19:11:28.686Z,12.20
2022-09-25T19:13:56.339Z,12.30
2022-09-25T19:16:23.254Z,12.30
2022-09-25T19:18:50.907Z,12.30
2022-09-25T19:21:22.763Z,12.30
2022-09-25T19:23:50.552Z,12.30
2022-09-25T19:26:22.298Z,12.30
2022-09-25T19:28:49.149Z,12.30
2022-09-25T19:31:18.841Z,12.30
2022-09-25T19:33:46.346Z,12.30
2022-09-25T19:36:19.104Z,12.30
2022-09-25T19:38:47.156Z,12.30
2022-09-25T19:41:26.483Z,12.20
2022-09-25T19:43:59.108Z,12.20
2022-09-25T19:46:27.719Z,12.20
2022-09-25T19:48:55.128Z,12.20
2022-09-25T19:51:23.502Z,12.10
2022-09-25T19:53:51.294Z,12.10
2022-09-25T19:56:21.755Z,12.10
2022-09-25T19:58:51.121Z,12.10
2022-09-25T20:01:25.335Z,12.10
2022-09-25T20:03:55.825Z,12.20
2022-09-25T20:06:23.364Z,12.10
2022-09-25T20:08:50.161Z,12.00
2022-09-25T20:11:20.693Z,12.10
2022-09-25T20:13:49.440Z,12.10
2022-09-25T20:16:24.192Z,12.10
2022-09-25T20:18:57.759Z,12.20
2022-09-25T20:21:25.598Z,12.20
2022-09-25T20:23:54.094Z,12.20
2022-09-25T20:26:21.441Z,12.20
2022-09-25T20:28:53.255Z,12.20
2022-09-25T20:31:20.088Z,12.20
2022-09-25T20:33:47.439Z,12.20
2022-09-25T20:36:15.701Z,12.10
2022-09-25T20:38:43.090Z,12.10
2022-09-25T20:41:11.701Z,12.10
2022-09-25T20:43:39.261Z,12.20
2022-09-25T20:46:09.778Z,12.20
2022-09-25T20:48:41.855Z,12.10
2022-09-25T20:51:10.832Z,12.10
2022-09-25T20:53:39.159Z,12.00
2022-09-25T20:56:11.068Z,11.90
2022-09-25T20:58:39.009Z,11.90
2022-09-25T21:01:11.158Z,11.90
2022-09-25T21:03:41.990Z,11.90
2022-09-25T21:06:15.228Z,11.90
2022-09-25T21:08:42.237Z,11.90
2022-09-25T21:11:11.711Z,11.80
2022-09-25T21:13:39.948Z,11.50
2022-09-25T21:16:13.229Z,11.40
2022-09-25T21:18:41.764Z,11.50
2022-09-25T21:21:12.264Z,11.50
2022-09-25T21:23:39.497Z,11.50
2022-09-25T21:26:10.213Z,11.30
2022-09-25T21:28:38.752Z,11.30
2022-09-25T21:31:07.725Z,11.40
2022-09-25T21:33:34.639Z,11.50
2022-09-25T21:36:02.240Z,11.50
2022-09-25T21:38:29.450Z,11.50
2022-09-25T21:41:00.118Z,11.50
2022-09-25T21:43:35.081Z,11.50
2022-09-25T21:46:08.206Z,11.60
2022-09-25T21:48:40.412Z,11.60
2022-09-25T21:51:08.233Z,11.60
2022-09-25T21:53:35.176Z,11.50
2022-09-25T21:56:07.347Z,11.40
2022-09-25T21:58:35.176Z,11.40
2022-09-25T22:01:08.835Z,11.50
2022-09-25T22:03:37.264Z,11.50
2022-09-25T22:06:13.585Z,11.50
2022-09-25T22:08:43.242Z,11.50
2022-09-25T22:11:11.615Z,11.30
2022-09-25T22:13:40.959Z,11.30
2022-09-25T22:16:10.245Z,11.40
2022-09-25T22:18:45.567Z,11.40
2022-09-25T22:21:15.472Z,11.50
2022-09-25T22:23:42.705Z,11.50
2022-09-25T22:26:10.066Z,11.30
2022-09-25T22:28:37.185Z,11.20
2022-09-25T22:31:10.499Z,11.20
2022-09-25T22:33:37.921Z,11.30
2022-09-25T22:36:06.671Z,11.30
2022-09-25T22:38:34.165Z,11.30
2022-09-25T22:41:06.415Z,11.30
2022-09-25T22:43:33.675Z,11.30
2022-09-25T22:46:00.558Z,11.40
2022-09-25T22:48:27.716Z,11.30
2022-09-25T22:50:57.226Z,11.30
2022-09-25T22:53:24.719Z,11.40
2022-09-25T22:55:51.976Z,11.40
2022-09-25T22:58:19.670Z,11.30
2022-09-25T23:00:51.091Z,11.30
2022-09-25T23:03:19.309Z,11.30
2022-09-25T23:05:46.596Z,11.20
2022-09-25T23:08:13.464Z,11.10
2022-09-25T23:11:05.639Z,11.00
2022-09-25T23:13:27.042Z,10.90
2022-09-25T23:15:53.784Z,10.90
2022-09-25T23:18:20.538Z,11.00
2022-09-25T23:20:55.437Z,11.10
2022-09-25T23:23:22.383Z,11.20
2022-09-25T23:25:49.216Z,11.20
2022-09-25T23:28:16.001Z,11.10
2022-09-25T23:30:43.009Z,10.80
2022-09-25T23:33:09.873Z,10.80
2022-09-25T23:35:36.836Z,10.90
2022-09-25T23:38:04.473Z,11.00
2022-09-25T23:40:31.338Z,11.00
2022-09-25T23:42:58.140Z,11.10
2022-09-25T23:45:24.925Z,11.10
2022-09-25T23:47:51.694Z,11.10
2022-09-25T23:50:18.538Z,11.00
2022-09-25T23:52:45.322Z,11.00
2022-09-25T23:55:12.074Z,11.10
2022-09-25T23:57:38.809Z,11.20
